createdAt,value
2023-05-24T00:00:37.663Z,82.41
2023-05-24T00:03:08.262Z,82.36
2023-05-24T00:05:38.746Z,82.37
2023-05-24T00:08:09.293Z,82.39
2023-05-24T00:10:39.902Z,82.26
2023-05-24T00:13:10.008Z,82.26
2023-05-24T00:15:40.581Z,82.21
2023-05-24T00:18:11.105Z,82.05
2023-05-24T00:20:42.227Z,82.03
2023-05-24T00:23:12.194Z,82.48
2023-05-24T00:25:42.736Z,82.14
2023-05-24T00:28:13.313Z,82.39
2023-05-24T00:30:43.732Z,82.88
2023-05-24T00:33:14.109Z,83.17
2023-05-24T00:35:44.749Z,82.83
2023-05-24T00:38:14.958Z,83.51
2023-05-24T00:40:45.522Z,83.52
2023-05-24T00:43:16.068Z,84.24
2023-05-24T00:45:46.681Z,84.82
2023-05-24T00:48:17.242Z,84.83
2023-05-24T00:50:47.788Z,84.60
2023-05-24T00:53:18.020Z,84.53
2023-05-24T00:55:48.311Z,84.93
2023-05-24T00:58:18.863Z,84.44
2023-05-24T01:00:49.443Z,84.32
2023-05-24T01:03:19.787Z,85.14
2023-05-24T01:05:50.320Z,85.28
2023-05-24T01:08:20.906Z,86.24
2023-05-24T01:10:51.635Z,85.63
2023-05-24T01:13:22.036Z,86.54
2023-05-24T01:15:52.703Z,86.22
2023-05-24T01:18:23.299Z,87.15
2023-05-24T01:20:53.807Z,87.03
2023-05-24T01:23:24.406Z,88.26
2023-05-24T01:25:54.983Z,86.93
2023-05-24T01:28:25.569Z,87.46
2023-05-24T01:30:56.181Z,87.40
2023-05-24T01:33:26.761Z,87.11
2023-05-24T01:35:56.888Z,86.91
2023-05-24T01:38:27.335Z,87.62
2023-05-24T01:40:57.936Z,87.53
2023-05-24T01:43:28.516Z,86.84
2023-05-24T01:45:59.151Z,87.29
2023-05-24T01:48:29.410Z,87.35
2023-05-24T01:51:00.053Z,86.89
2023-05-24T01:53:30.612Z,86.70
2023-05-24T01:56:01.202Z,86.35
2023-05-24T01:58:31.766Z,86.07
2023-05-24T02:01:02.428Z,86.65
2023-05-24T02:03:32.994Z,86.61
2023-05-24T02:06:03.160Z,86.35
2023-05-24T02:08:33.715Z,86.69
2023-05-24T02:11:04.292Z,86.79
2023-05-24T02:13:34.955Z,87.20
2023-05-24T02:16:05.441Z,87.30
2023-05-24T02:18:35.998Z,87.14
2023-05-24T02:21:06.310Z,87.48
2023-05-24T02:23:36.611Z,87.30
2023-05-24T02:26:06.759Z,87.07
2023-05-24T02:28:36.895Z,87.45
2023-05-24T02:31:07.422Z,87.75
2023-05-24T02:33:37.639Z,87.65
2023-05-24T02:36:08.221Z,87.70
2023-05-24T02:38:38.809Z,87.92
2023-05-24T02:41:09.126Z,87.74
2023-05-24T02:43:39.964Z,87.74
2023-05-24T02:46:10.815Z,87.69
2023-05-24T02:48:41.329Z,87.80
2023-05-24T02:51:11.908Z,87.39
2023-05-24T02:53:42.486Z,87.10
2023-05-24T02:56:12.780Z,87.05
2023-05-24T02:58:43.323Z,86.83
2023-05-24T03:01:13.928Z,87.44
2023-05-24T03:03:44.630Z,87.19
2023-05-24T03:06:15.078Z,87.29
2023-05-24T03:08:45.646Z,87.36
2023-05-24T03:11:15.914Z,87.23
2023-05-24T03:13:46.134Z,87.24
2023-05-24T03:16:16.492Z,88.34
2023-05-24T03:18:47.277Z,87.55
2023-05-24T03:21:17.903Z,87.07
2023-05-24T03:23:48.683Z,87.93
2023-05-24T03:26:18.983Z,88.41
2023-05-24T03:28:49.481Z,88.34
2023-05-24T03:31:20.360Z,87.76
2023-05-24T03:33:50.977Z,87.44
2023-05-24T03:36:21.136Z,88.58
2023-05-24T03:38:51.689Z,89.11
2023-05-24T03:41:22.259Z,88.24
2023-05-24T03:43:52.590Z,88.89
2023-05-24T03:46:23.171Z,88.84
2023-05-24T03:48:53.675Z,88.92
2023-05-24T03:51:24.260Z,88.75
2023-05-24T03:53:54.830Z,88.62
2023-05-24T03:56:25.389Z,87.94
2023-05-24T03:58:55.655Z,87.92
2023-05-24T04:01:33.899Z,88.31
2023-05-24T04:03:56.819Z,88.11
2023-05-24T04:06:27.378Z,88.98
2023-05-24T04:08:57.948Z,89.67
2023-05-24T04:11:28.724Z,89.18
2023-05-24T04:13:59.134Z,89.22
2023-05-24T04:16:29.731Z,89.04
2023-05-24T04:19:00.349Z,88.35
2023-05-24T04:21:30.821Z,88.92
2023-05-24T04:24:01.424Z,88.26
2023-05-24T04:26:31.957Z,89.45
2023-05-24T04:29:02.184Z,88.60
2023-05-24T04:31:32.821Z,88.72
2023-05-24T04:34:03.317Z,89.53
2023-05-24T04:36:33.906Z,89.82
2023-05-24T04:39:04.180Z,89.86
2023-05-24T04:41:34.332Z,90.12
2023-05-24T04:44:04.784Z,90.58
2023-05-24T04:46:35.460Z,90.88
2023-05-24T04:49:05.998Z,90.74
2023-05-24T04:51:36.457Z,90.89
2023-05-24T04:54:07.033Z,91.38
2023-05-24T04:56:37.606Z,90.74
2023-05-24T04:59:08.154Z,90.91
2023-05-24T05:01:38.762Z,90.37
2023-05-24T05:04:09.458Z,90.53
2023-05-24T05:06:39.869Z,91.28
2023-05-24T05:09:10.438Z,91.09
2023-05-24T05:11:41.027Z,91.08
2023-05-24T05:14:11.641Z,91.61
2023-05-24T05:16:42.161Z,92.12
2023-05-24T05:19:12.696Z,92.13
2023-05-24T05:21:43.314Z,92.81
2023-05-24T05:24:13.651Z,92.41
2023-05-24T05:26:43.854Z,91.87
2023-05-24T05:29:14.698Z,92.83
2023-05-24T05:31:45.232Z,92.29
2023-05-24T05:34:15.721Z,92.16
2023-05-24T05:36:46.028Z,92.09
2023-05-24T05:39:16.577Z,91.60
2023-05-24T05:41:46.849Z,92.16
2023-05-24T05:44:17.494Z,92.09
2023-05-24T05:46:48.016Z,91.79
2023-05-24T05:49:18.477Z,91.88
2023-05-24T05:51:48.704Z,91.48
2023-05-24T05:54:19.523Z,91.26
2023-05-24T05:56:49.812Z,91.89
2023-05-24T05:59:20.290Z,90.67
2023-05-24T06:01:50.470Z,90.93
2023-05-24T06:04:21.065Z,91.04
2023-05-24T06:06:51.282Z,91.70
2023-05-24T06:09:21.526Z,91.22
2023-05-24T06:11:51.705Z,91.43
2023-05-24T06:14:22.349Z,90.99
2023-05-24T06:16:52.770Z,91.33
2023-05-24T06:19:23.285Z,91.01
2023-05-24T06:21:53.829Z,90.49
2023-05-24T06:24:24.337Z,90.15
2023-05-24T06:26:54.595Z,90.27
2023-05-24T06:29:25.138Z,90.50
2023-05-24T06:31:55.448Z,90.64
2023-05-24T06:34:25.856Z,89.99
2023-05-24T06:36:56.620Z,89.59
2023-05-24T06:39:27.118Z,89.49
2023-05-24T06:41:57.652Z,89.52
2023-05-24T06:44:28.145Z,89.53
2023-05-24T06:46:58.720Z,88.45
2023-05-24T06:49:29.179Z,87.54
2023-05-24T06:51:59.690Z,86.53
2023-05-24T06:54:29.912Z,87.47
2023-05-24T06:57:00.156Z,86.32
2023-05-24T06:59:30.638Z,85.60
2023-05-24T07:02:03.692Z,86.82
2023-05-24T07:04:31.342Z,86.06
2023-05-24T07:07:01.892Z,85.35
2023-05-24T07:09:32.315Z,84.95
2023-05-24T07:12:02.574Z,85.40
2023-05-24T07:14:33.057Z,85.30
2023-05-24T07:17:03.636Z,85.13
2023-05-24T07:19:34.046Z,85.18
2023-05-24T07:22:04.584Z,84.38
2023-05-24T07:24:35.078Z,83.44
2023-05-24T07:27:05.602Z,83.44
2023-05-24T07:29:36.095Z,83.86
2023-05-24T07:32:06.937Z,83.98
2023-05-24T07:34:37.359Z,83.93
2023-05-24T07:37:07.909Z,83.56
2023-05-24T07:39:38.693Z,83.73
2023-05-24T07:42:09.194Z,82.33
2023-05-24T07:44:39.694Z,82.59
2023-05-24T07:47:10.203Z,82.97
2023-05-24T07:49:40.771Z,83.18
2023-05-24T07:52:11.201Z,82.94
2023-05-24T07:54:41.363Z,82.68
2023-05-24T07:57:11.599Z,82.46
2023-05-24T07:59:42.076Z,81.40
2023-05-24T08:02:12.592Z,80.92
2023-05-24T08:04:43.436Z,80.72
2023-05-24T08:07:13.939Z,80.48
2023-05-24T08:09:44.410Z,79.82
2023-05-24T08:12:16.983Z,79.69
2023-05-24T08:14:45.152Z,78.20
2023-05-24T08:17:15.566Z,77.41
2023-05-24T08:19:46.103Z,77.40
2023-05-24T08:22:16.599Z,76.37
2023-05-24T08:24:47.078Z,76.98
2023-05-24T08:27:17.575Z,76.83
2023-05-24T08:29:48.114Z,75.95
2023-05-24T08:32:18.598Z,75.73
2023-05-24T08:34:49.079Z,76.09
2023-05-24T08:37:19.581Z,76.47
2023-05-24T08:39:50.070Z,76.44
2023-05-24T08:42:20.369Z,75.86
2023-05-24T08:44:50.585Z,75.58
2023-05-24T08:47:21.000Z,75.68
2023-05-24T08:49:51.535Z,75.65
2023-05-24T08:52:21.963Z,73.91
2023-05-24T08:54:52.451Z,73.02
2023-05-24T08:57:22.919Z,73.07
2023-05-24T08:59:53.461Z,74.25
2023-05-24T09:02:23.856Z,74.99
2023-05-24T09:04:54.416Z,73.51
2023-05-24T09:07:24.924Z,74.03
2023-05-24T09:09:55.196Z,73.57
2023-05-24T09:12:36.169Z,74.19
2023-05-24T09:14:56.234Z,74.02
2023-05-24T09:17:26.741Z,73.93
2023-05-24T09:19:57.310Z,73.33
2023-05-24T09:22:27.648Z,72.70
2023-05-24T09:24:58.111Z,70.57
2023-05-24T09:27:28.560Z,71.53
2023-05-24T09:29:58.744Z,72.79
2023-05-24T09:32:29.197Z,73.55
2023-05-24T09:34:59.612Z,73.37
2023-05-24T09:37:33.018Z,74.43
2023-05-24T09:40:00.730Z,75.03
2023-05-24T09:42:31.012Z,74.90
2023-05-24T09:45:01.493Z,74.82
2023-05-24T09:47:31.991Z,74.05
2023-05-24T09:50:02.523Z,74.33
2023-05-24T09:52:34.074Z,73.44
2023-05-24T09:55:03.157Z,73.20
2023-05-24T09:57:33.599Z,73.67
2023-05-24T10:00:04.076Z,72.94
2023-05-24T10:02:41.834Z,73.66
2023-05-24T10:05:04.874Z,73.02
2023-05-24T10:07:35.145Z,72.49
2023-05-24T10:10:07.506Z,72.02
2023-05-24T10:12:36.065Z,71.49
2023-05-24T10:15:06.566Z,72.22
2023-05-24T10:17:37.047Z,71.92
2023-05-24T10:20:07.521Z,72.08
2023-05-24T10:22:37.979Z,72.50
2023-05-24T10:25:08.521Z,70.67
2023-05-24T10:27:38.558Z,71.76
2023-05-24T10:30:10.670Z,70.55
2023-05-24T10:32:39.588Z,71.39
2023-05-24T10:35:09.989Z,70.98
2023-05-24T10:37:40.073Z,70.74
2023-05-24T10:40:10.531Z,70.85
2023-05-24T10:42:40.606Z,71.50
2023-05-24T10:45:11.069Z,72.54
2023-05-24T10:47:41.501Z,70.57
2023-05-24T10:50:12.016Z,70.82
2023-05-24T10:52:42.283Z,70.63
2023-05-24T10:55:12.500Z,69.38
2023-05-24T10:57:42.854Z,69.87
2023-05-24T11:00:17.820Z,70.24
2023-05-24T11:02:43.491Z,70.31
2023-05-24T11:05:13.834Z,70.49
2023-05-24T11:07:44.216Z,70.77
2023-05-24T11:10:14.682Z,70.83
2023-05-24T11:12:45.080Z,69.83
2023-05-24T11:15:15.524Z,68.96
2023-05-24T11:17:45.990Z,70.15
2023-05-24T11:20:16.473Z,70.59
2023-05-24T11:22:46.849Z,71.36
2023-05-24T11:25:17.268Z,71.39
2023-05-24T11:27:47.713Z,70.93
2023-05-24T11:30:18.129Z,71.88
2023-05-24T11:32:48.618Z,71.48
2023-05-24T11:35:18.988Z,71.82
2023-05-24T11:37:49.412Z,71.92
2023-05-24T11:40:19.882Z,71.71
2023-05-24T11:42:50.254Z,72.19
2023-05-24T11:45:20.653Z,71.57
2023-05-24T11:47:51.146Z,70.49
2023-05-24T11:50:21.728Z,71.10
2023-05-24T11:52:52.167Z,70.39
2023-05-24T11:55:22.645Z,69.98
2023-05-24T11:57:53.023Z,70.57
2023-05-24T12:00:23.495Z,69.76
2023-05-24T12:02:56.260Z,69.68
2023-05-24T12:05:24.243Z,69.83
2023-05-24T12:07:57.354Z,70.27
2023-05-24T12:10:25.118Z,70.21
2023-05-24T12:12:55.481Z,68.74
2023-05-24T12:15:25.966Z,68.47
2023-05-24T12:17:56.984Z,68.27
2023-05-24T12:20:26.861Z,68.95
2023-05-24T12:22:57.202Z,69.53
2023-05-24T12:25:27.802Z,70.07
2023-05-24T12:27:58.082Z,70.40
2023-05-24T12:30:28.479Z,72.08
2023-05-24T12:32:58.968Z,71.69
2023-05-24T12:35:29.366Z,70.92
2023-05-24T12:37:59.787Z,69.79
2023-05-24T12:40:30.277Z,69.94
2023-05-24T12:43:00.663Z,70.49
2023-05-24T12:45:31.077Z,68.94
2023-05-24T12:48:01.560Z,69.74
2023-05-24T12:50:31.924Z,68.96
2023-05-24T12:53:02.273Z,68.77
2023-05-24T12:55:32.652Z,68.58
2023-05-24T12:58:03.036Z,67.43
2023-05-24T13:00:33.429Z,66.51
2023-05-24T13:03:03.810Z,66.16
2023-05-24T13:05:34.189Z,66.99
2023-05-24T13:08:04.477Z,66.33
2023-05-24T13:10:34.837Z,65.27
2023-05-24T13:13:05.229Z,65.90
2023-05-24T13:15:35.565Z,67.22
2023-05-24T13:18:05.985Z,68.28
2023-05-24T13:20:36.393Z,68.84
2023-05-24T13:23:06.666Z,68.29
2023-05-24T13:25:37.040Z,68.82
2023-05-24T13:28:07.425Z,69.80
2023-05-24T13:30:37.892Z,68.48
2023-05-24T13:33:08.227Z,68.58
2023-05-24T13:35:38.593Z,68.80
2023-05-24T13:38:08.918Z,67.93
2023-05-24T13:41:20.351Z,68.15
2023-05-24T13:43:09.684Z,67.45
2023-05-24T13:45:40.319Z,68.62
2023-05-24T13:48:10.747Z,67.98
2023-05-24T13:50:41.360Z,68.05
2023-05-24T13:53:11.573Z,67.96
2023-05-24T13:55:41.924Z,67.30
2023-05-24T13:58:12.250Z,67.32
2023-05-24T14:00:42.897Z,67.25
2023-05-24T14:03:13.133Z,65.92
2023-05-24T14:05:43.633Z,66.05
2023-05-24T14:08:13.749Z,66.50
2023-05-24T14:10:44.129Z,66.55
2023-05-24T14:13:36.686Z,67.59
2023-05-24T14:15:45.171Z,66.46
2023-05-24T14:18:15.247Z,66.80
2023-05-24T14:20:45.691Z,67.42
2023-05-24T14:23:16.002Z,65.30
2023-05-24T14:25:46.444Z,66.15
2023-05-24T14:28:16.759Z,65.52
2023-05-24T14:30:47.108Z,66.34
2023-05-24T14:33:17.518Z,66.73
2023-05-24T14:35:47.859Z,68.21
2023-05-24T14:38:18.261Z,67.89
2023-05-24T14:40:48.811Z,67.91
2023-05-24T14:43:19.012Z,67.69
2023-05-24T14:45:49.412Z,67.78
2023-05-24T14:48:19.596Z,67.59
2023-05-24T14:50:49.881Z,67.99
2023-05-24T14:53:19.993Z,68.47
2023-05-24T14:55:50.435Z,69.01
2023-05-24T14:58:20.718Z,68.32
2023-05-24T15:00:51.142Z,68.02
2023-05-24T15:03:21.551Z,67.32
2023-05-24T15:05:51.872Z,67.75
2023-05-24T15:08:22.295Z,67.58
2023-05-24T15:10:52.784Z,67.72
2023-05-24T15:13:23.058Z,68.38
2023-05-24T15:15:53.448Z,67.90
2023-05-24T15:18:23.841Z,67.66
2023-05-24T15:20:53.994Z,67.99
2023-05-24T15:23:24.347Z,67.81
2023-05-24T15:25:54.861Z,67.48
2023-05-24T15:28:26.655Z,67.68
2023-05-24T15:30:55.564Z,66.94
2023-05-24T15:33:25.906Z,66.69
2023-05-24T15:35:56.246Z,67.00
2023-05-24T15:38:26.634Z,66.28
2023-05-24T15:40:56.995Z,67.23
2023-05-24T15:43:27.404Z,66.86
2023-05-24T15:45:57.832Z,68.00
2023-05-24T15:48:28.146Z,68.21
2023-05-24T15:53:28.904Z,68.91
2023-05-24T15:55:59.341Z,69.15
2023-05-24T15:58:29.788Z,68.99
2023-05-24T16:01:00.054Z,69.54
2023-05-24T16:03:30.657Z,69.96
2023-05-24T16:06:00.933Z,69.84
2023-05-24T16:08:31.226Z,70.07
2023-05-24T16:11:01.618Z,70.11
2023-05-24T16:13:32.111Z,70.34
2023-05-24T16:16:02.388Z,70.03
2023-05-24T16:18:32.803Z,69.91
2023-05-24T16:21:03.298Z,69.96
2023-05-24T16:23:33.673Z,70.44
2023-05-24T16:26:04.011Z,70.93
2023-05-24T16:28:34.479Z,70.64
2023-05-24T16:31:04.812Z,70.29
2023-05-24T16:33:35.338Z,70.12
2023-05-24T16:36:05.623Z,70.03
2023-05-24T16:38:35.760Z,69.97
2023-05-24T16:41:06.161Z,71.21
2023-05-24T16:43:36.214Z,70.02
2023-05-24T16:46:06.662Z,69.98
2023-05-24T16:48:37.043Z,70.24
2023-05-24T16:51:07.372Z,68.82
2023-05-24T16:53:37.770Z,69.82
2023-05-24T16:56:08.135Z,70.75
2023-05-24T16:58:38.571Z,69.48
2023-05-24T17:01:08.955Z,69.83
2023-05-24T17:03:39.358Z,70.21
2023-05-24T17:06:09.660Z,70.04
2023-05-24T17:08:40.068Z,69.99
2023-05-24T17:11:10.530Z,69.32
2023-05-24T17:13:40.856Z,68.98
2023-05-24T17:16:11.566Z,69.60
2023-05-24T17:18:41.907Z,69.20
2023-05-24T17:21:12.308Z,69.12
2023-05-24T17:23:42.672Z,68.68
2023-05-24T17:26:13.054Z,68.41
2023-05-24T17:28:43.431Z,68.52
2023-05-24T17:31:13.952Z,68.18
2023-05-24T17:33:44.225Z,67.66
2023-05-24T17:36:14.577Z,66.63
2023-05-24T17:38:44.963Z,66.43
2023-05-24T17:41:15.344Z,66.69
2023-05-24T17:43:45.733Z,67.13
2023-05-24T17:46:16.130Z,67.17
2023-05-24T17:48:46.493Z,67.92
2023-05-24T17:51:16.867Z,67.62
2023-05-24T17:53:47.276Z,68.60
2023-05-24T17:56:17.661Z,68.82
2023-05-24T17:58:48.105Z,68.83
2023-05-24T18:01:18.492Z,69.28
2023-05-24T18:03:48.833Z,69.07
2023-05-24T18:06:19.285Z,69.20
2023-05-24T18:08:49.638Z,69.85
2023-05-24T18:11:20.030Z,69.69
2023-05-24T18:13:50.465Z,70.32
2023-05-24T18:16:20.831Z,69.38
2023-05-24T18:18:51.316Z,70.21
2023-05-24T18:21:21.684Z,69.84
2023-05-24T18:23:52.053Z,70.26
2023-05-24T18:26:22.450Z,70.43
2023-05-24T18:28:52.612Z,70.44
2023-05-24T18:31:22.991Z,70.61
2023-05-24T18:33:53.445Z,70.57
2023-05-24T18:36:23.795Z,70.71
2023-05-24T18:38:54.232Z,70.28
2023-05-24T18:41:24.628Z,70.33
2023-05-24T18:43:55.113Z,70.28
2023-05-24T18:46:25.434Z,70.57
2023-05-24T18:48:55.940Z,71.00
2023-05-24T18:51:26.257Z,71.31
2023-05-24T18:53:56.692Z,71.34
2023-05-24T18:56:27.102Z,71.78
2023-05-24T18:58:57.657Z,71.71
2023-05-24T19:01:28.178Z,71.41
2023-05-24T19:03:58.476Z,71.61
2023-05-24T19:06:28.743Z,71.52
2023-05-24T19:08:59.173Z,71.60
2023-05-24T19:11:29.586Z,71.63
2023-05-24T19:13:59.992Z,71.58
2023-05-24T19:16:30.416Z,71.55
2023-05-24T19:19:00.816Z,71.70
2023-05-24T19:21:31.279Z,71.77
2023-05-24T19:24:01.664Z,71.73
2023-05-24T19:26:32.040Z,71.94
2023-05-24T19:29:02.447Z,72.01
2023-05-24T19:31:32.903Z,72.14
2023-05-24T19:34:03.278Z,72.38
2023-05-24T19:36:33.760Z,72.31
2023-05-24T19:39:04.125Z,72.51
2023-05-24T19:41:34.539Z,72.71
2023-05-24T19:44:04.972Z,72.69
2023-05-24T19:46:35.486Z,73.28
2023-05-24T19:49:05.815Z,73.76
2023-05-24T19:51:36.317Z,74.03
2023-05-24T19:54:06.689Z,74.37
2023-05-24T19:56:36.778Z,74.43
2023-05-24T19:59:07.307Z,74.59
2023-05-24T20:01:37.721Z,74.48
2023-05-24T20:04:08.351Z,74.39
2023-05-24T20:06:38.592Z,74.46
2023-05-24T20:09:09.045Z,74.48
2023-05-24T20:11:39.209Z,74.43
2023-05-24T20:14:09.661Z,74.43
2023-05-24T20:16:40.315Z,74.56
2023-05-24T20:19:10.553Z,74.54
2023-05-24T20:21:40.987Z,74.46
2023-05-24T20:24:11.465Z,74.49
2023-05-24T20:26:41.901Z,74.71
2023-05-24T20:29:12.407Z,75.09
2023-05-24T20:31:42.806Z,75.00
2023-05-24T20:34:13.258Z,75.04
2023-05-24T20:36:44.046Z,75.14
2023-05-24T20:39:14.094Z,75.15
2023-05-24T20:41:44.539Z,75.43
2023-05-24T20:44:14.980Z,75.13
2023-05-24T20:46:45.401Z,75.31
2023-05-24T20:49:15.847Z,75.24
2023-05-24T20:51:46.277Z,75.53
2023-05-24T20:54:16.743Z,75.51
2023-05-24T20:56:47.189Z,75.53
2023-05-24T20:59:17.619Z,75.51
2023-05-24T21:01:48.092Z,75.62
2023-05-24T21:04:18.585Z,75.61
2023-05-24T21:06:48.969Z,75.73
2023-05-24T21:09:19.439Z,75.94
2023-05-24T21:11:49.906Z,75.94
2023-05-24T21:14:20.404Z,75.87
2023-05-24T21:16:50.843Z,76.09
2023-05-24T21:19:21.295Z,76.16
2023-05-24T21:21:51.774Z,76.48
2023-05-24T21:24:22.264Z,77.21
2023-05-24T21:26:52.820Z,78.01
2023-05-24T21:29:23.138Z,78.05
2023-05-24T21:31:53.155Z,78.39
2023-05-24T21:34:23.623Z,78.56
2023-05-24T21:36:54.064Z,79.16
2023-05-24T21:39:24.864Z,79.54
2023-05-24T21:41:55.354Z,79.57
2023-05-24T21:44:25.710Z,79.24
2023-05-24T21:46:56.113Z,79.49
2023-05-24T21:49:25.964Z,79.55
2023-05-24T21:51:56.089Z,79.43
2023-05-24T21:54:26.509Z,79.40
2023-05-24T21:56:56.515Z,79.86
2023-05-24T21:59:26.545Z,80.04
2023-05-24T22:01:57.439Z,80.48
2023-05-24T22:04:27.969Z,80.86
2023-05-24T22:06:58.041Z,80.45
2023-05-24T22:09:28.766Z,80.11
2023-05-24T22:11:58.994Z,79.94
2023-05-24T22:14:29.626Z,80.10
2023-05-24T22:17:00.186Z,79.85
2023-05-24T22:19:39.552Z,80.16
2023-05-24T22:22:01.422Z,80.16
2023-05-24T22:24:32.172Z,80.05
2023-05-24T22:27:02.703Z,80.34
2023-05-24T22:29:32.806Z,80.18
2023-05-24T22:32:03.820Z,79.78
2023-05-24T22:34:34.235Z,79.46
2023-05-24T22:37:04.600Z,79.48
2023-05-24T22:39:34.992Z,79.62
2023-05-24T22:42:05.110Z,79.54
2023-05-24T22:44:36.093Z,79.51
2023-05-24T22:47:06.702Z,79.11
2023-05-24T22:49:36.837Z,78.98
2023-05-24T22:52:07.498Z,78.78
2023-05-24T22:54:37.644Z,78.75
2023-05-24T22:57:08.240Z,78.84
2023-05-24T22:59:38.850Z,78.98
2023-05-24T23:02:09.483Z,79.57
2023-05-24T23:04:40.295Z,79.64
2023-05-24T23:07:10.476Z,79.77
2023-05-24T23:09:40.527Z,79.88
2023-05-24T23:12:10.591Z,79.82
2023-05-24T23:14:40.893Z,79.67
2023-05-24T23:17:11.148Z,80.08
2023-05-24T23:19:41.174Z,80.44
2023-05-24T23:22:11.852Z,80.45
2023-05-24T23:24:42.669Z,80.60
2023-05-24T23:27:12.871Z,80.86
2023-05-24T23:29:43.394Z,80.58
2023-05-24T23:32:13.917Z,80.34
2023-05-24T23:34:44.449Z,80.46
2023-05-24T23:37:14.974Z,80.07
2023-05-24T23:39:45.539Z,80.11
2023-05-24T23:42:16.028Z,80.38
2023-05-24T23:44:46.553Z,79.96
2023-05-24T23:47:17.068Z,80.07
2023-05-24T23:49:47.615Z,80.01
2023-05-24T23:52:18.128Z,79.78
2023-05-24T23:54:48.650Z,79.78
2023-05-24T23:57:19.191Z,79.99
2023-05-24T23:59:49.799Z,79.95
